createdAt,value
2023-05-11T00:01:06.057Z,17.75
2023-05-11T00:03:33.279Z,17.20
2023-05-11T00:06:00.420Z,14.73
2023-05-11T00:08:27.405Z,15.70
2023-05-11T00:10:54.106Z,12.55
2023-05-11T00:13:20.994Z,12.98
2023-05-11T00:15:47.673Z,15.85
2023-05-11T00:18:14.402Z,15.93
2023-05-11T00:20:41.087Z,14.85
2023-05-11T00:23:07.803Z,18.42
2023-05-11T00:25:34.553Z,22.55
2023-05-11T00:28:01.146Z,19.40
2023-05-11T00:30:27.843Z,20.27
2023-05-11T00:32:54.539Z,14.95
2023-05-11T00:35:21.582Z,16.17
2023-05-11T00:37:48.442Z,18.42
2023-05-11T00:40:15.260Z,19.83
2023-05-11T00:42:42.076Z,15.40
2023-05-11T00:45:08.988Z,16.00
2023-05-11T00:47:35.695Z,15.85
2023-05-11T00:50:02.655Z,16.60
2023-05-11T00:52:30.118Z,17.17
2023-05-11T00:54:56.767Z,20.40
2023-05-11T00:57:23.640Z,17.02
2023-05-11T00:59:50.441Z,18.63
2023-05-11T01:02:17.753Z,15.57
2023-05-11T01:04:44.954Z,16.98
2023-05-11T01:07:23.877Z,16.08
2023-05-11T01:10:13.608Z,18.85
2023-05-11T01:13:01.851Z,13.40
2023-05-11T01:15:45.172Z,12.68
2023-05-11T01:18:21.465Z,16.75
2023-05-11T01:20:49.646Z,12.73
2023-05-11T01:23:25.432Z,16.73
2023-05-11T01:27:03.190Z,15.13
2023-05-11T01:29:47.939Z,13.30
2023-05-11T01:32:26.543Z,20.80
2023-05-11T01:35:01.311Z,19.10
2023-05-11T01:37:28.457Z,19.67
2023-05-11T01:40:01.821Z,19.42
2023-05-11T01:42:45.001Z,11.68
2023-05-11T01:45:13.342Z,12.63
2023-05-11T01:47:41.965Z,19.60
2023-05-11T01:50:09.112Z,11.50
2023-05-11T01:52:37.714Z,16.60
2023-05-11T01:55:06.296Z,17.65
2023-05-11T01:57:33.742Z,16.55
2023-05-11T02:00:01.435Z,15.52
2023-05-11T02:02:29.034Z,16.10
2023-05-11T02:04:55.979Z,22.95
2023-05-11T02:07:23.508Z,21.33
2023-05-11T02:09:50.918Z,24.83
2023-05-11T02:12:19.980Z,22.20
2023-05-11T02:14:47.642Z,23.05
2023-05-11T02:17:15.804Z,23.33
2023-05-11T02:19:43.316Z,24.83
2023-05-11T02:22:10.260Z,25.25
2023-05-11T02:24:37.109Z,22.85
2023-05-11T02:27:04.001Z,26.42
2023-05-11T02:29:30.803Z,40.05
2023-05-11T02:32:08.521Z,24.70
2023-05-11T02:34:43.857Z,18.73
2023-05-11T02:37:13.440Z,25.00
2023-05-11T02:39:41.674Z,29.65
2023-05-11T02:42:14.480Z,23.92
2023-05-11T02:44:45.844Z,26.00
2023-05-11T02:49:40.103Z,27.77
2023-05-11T02:52:07.984Z,30.80
2023-05-11T02:54:35.666Z,30.58
2023-05-11T02:57:03.920Z,24.27
2023-05-11T02:59:31.014Z,29.27
2023-05-11T03:01:58.709Z,29.23
2023-05-11T03:04:25.680Z,31.45
2023-05-11T03:06:52.413Z,29.38
2023-05-11T03:09:19.282Z,27.00
2023-05-11T03:11:46.601Z,28.50
2023-05-11T03:14:13.433Z,29.98
2023-05-11T03:16:41.191Z,20.27
2023-05-11T03:19:08.675Z,23.40
2023-05-11T03:21:37.514Z,21.05
2023-05-11T03:24:06.996Z,23.83
2023-05-11T03:26:34.681Z,22.45
2023-05-11T03:29:01.526Z,20.00
2023-05-11T03:31:28.200Z,25.52
2023-05-11T03:33:55.061Z,26.00
2023-05-11T03:36:23.159Z,24.95
2023-05-11T03:38:52.807Z,21.77
2023-05-11T03:41:20.332Z,27.50
2023-05-11T03:43:51.548Z,25.15
2023-05-11T03:46:20.942Z,23.70
2023-05-11T03:48:48.238Z,25.15
2023-05-11T03:51:15.039Z,21.95
2023-05-11T03:53:41.874Z,24.15
2023-05-11T03:56:08.732Z,22.90
2023-05-11T03:58:40.564Z,25.38
2023-05-11T04:01:08.541Z,24.40
2023-05-11T04:03:56.272Z,27.30
2023-05-11T04:06:23.147Z,24.13
2023-05-11T04:08:50.526Z,23.95
2023-05-11T04:11:17.158Z,26.40
2023-05-11T04:13:43.879Z,26.15
2023-05-11T04:16:10.818Z,29.70
2023-05-11T04:18:37.606Z,26.88
2023-05-11T04:21:06.225Z,26.02
2023-05-11T04:23:32.953Z,23.73
2023-05-11T04:25:59.750Z,27.42
2023-05-11T04:28:28.176Z,25.83
2023-05-11T04:30:55.547Z,24.90
2023-05-11T04:33:22.798Z,26.17
2023-05-11T04:35:54.378Z,26.92
2023-05-11T04:38:22.323Z,23.75
2023-05-11T04:40:50.784Z,19.80
2023-05-11T04:43:19.567Z,24.30
2023-05-11T04:45:52.244Z,27.00
2023-05-11T04:48:20.710Z,21.45
2023-05-11T04:50:47.936Z,28.02
2023-05-11T04:53:14.701Z,23.00
2023-05-11T04:55:41.467Z,24.83
2023-05-11T04:58:08.134Z,26.40
2023-05-11T05:00:36.642Z,24.42
2023-05-11T05:03:03.594Z,28.95
2023-05-11T05:05:30.422Z,26.08
2023-05-11T05:07:57.118Z,24.67
2023-05-11T05:10:23.820Z,22.55
2023-05-11T05:12:50.539Z,26.80
2023-05-11T05:15:17.248Z,23.08
2023-05-11T05:17:43.968Z,22.45
2023-05-11T05:20:10.917Z,21.35
2023-05-11T05:22:37.667Z,25.77
2023-05-11T05:25:04.642Z,26.73
2023-05-11T05:27:34.784Z,28.85
2023-05-11T05:30:01.832Z,25.98
2023-05-11T05:32:29.020Z,24.67
2023-05-11T05:34:55.764Z,26.73
2023-05-11T05:37:22.445Z,27.80
2023-05-11T05:39:49.251Z,25.50
2023-05-11T05:42:16.066Z,26.60
2023-05-11T05:44:42.769Z,27.05
2023-05-11T05:47:09.483Z,20.73
2023-05-11T05:49:36.240Z,21.45
2023-05-11T05:52:02.943Z,22.80
2023-05-11T05:54:29.611Z,23.52
2023-05-11T05:56:56.388Z,23.38
2023-05-11T05:59:24.429Z,23.42
2023-05-11T06:01:51.744Z,21.85
2023-05-11T06:04:18.844Z,25.38
2023-05-11T06:06:46.616Z,23.20
2023-05-11T06:09:13.780Z,25.55
2023-05-11T06:11:41.261Z,26.00
2023-05-11T06:14:07.951Z,22.30
2023-05-11T06:16:34.724Z,22.95
2023-05-11T06:19:01.525Z,26.75
2023-05-11T06:21:30.765Z,23.25
2023-05-11T06:23:57.553Z,29.13
2023-05-11T06:26:25.388Z,29.15
2023-05-11T06:28:52.800Z,25.67
2023-05-11T06:31:19.795Z,24.50
2023-05-11T06:33:46.558Z,26.20
2023-05-11T06:36:13.247Z,27.85
2023-05-11T06:38:39.946Z,24.70
2023-05-11T06:41:07.578Z,30.70
2023-05-11T06:43:34.341Z,27.73
2023-05-11T06:46:01.066Z,30.08
2023-05-11T06:48:30.094Z,26.83
2023-05-11T06:50:57.039Z,25.65
2023-05-11T06:53:23.814Z,29.83
2023-05-11T06:55:50.544Z,26.35
2023-05-11T06:58:20.720Z,25.63
2023-05-11T07:00:47.455Z,29.80
2023-05-11T07:03:14.221Z,27.13
2023-05-11T07:05:41.150Z,27.70
2023-05-11T07:08:08.081Z,30.17
2023-05-11T07:10:34.768Z,25.83
2023-05-11T07:13:01.437Z,28.45
2023-05-11T07:15:28.172Z,28.10
2023-05-11T07:17:54.970Z,30.25
2023-05-11T07:20:21.771Z,25.95
2023-05-11T07:22:48.631Z,25.70
2023-05-11T07:25:15.488Z,25.55
2023-05-11T07:27:42.437Z,25.65
2023-05-11T07:30:09.594Z,27.83
2023-05-11T07:32:36.339Z,21.98
2023-05-11T07:35:03.100Z,21.77
2023-05-11T07:37:29.873Z,22.40
2023-05-11T07:39:56.745Z,23.92
2023-05-11T07:42:23.472Z,20.42
2023-05-11T07:44:50.240Z,23.17
2023-05-11T07:47:19.108Z,20.17
2023-05-11T07:49:47.507Z,19.15
2023-05-11T07:52:14.634Z,18.63
2023-05-11T07:54:41.501Z,19.63
2023-05-11T07:57:08.498Z,18.02
2023-05-11T07:59:36.125Z,18.27
2023-05-11T08:02:04.307Z,17.58
2023-05-11T08:04:31.149Z,20.27
2023-05-11T08:06:58.501Z,20.38
2023-05-11T08:09:25.328Z,19.25
2023-05-11T08:11:53.333Z,17.27
2023-05-11T08:14:21.363Z,18.77
2023-05-11T08:16:49.793Z,17.17
2023-05-11T08:19:16.747Z,18.02
2023-05-11T08:21:44.427Z,14.75
2023-05-11T08:24:11.144Z,17.75
2023-05-11T08:26:38.228Z,14.75
2023-05-11T08:29:05.173Z,16.30
2023-05-11T08:31:32.190Z,23.25
2023-05-11T08:33:59.169Z,21.50
2023-05-11T08:36:26.375Z,18.17
2023-05-11T08:38:57.050Z,16.77
2023-05-11T08:41:26.034Z,17.23
2023-05-11T08:43:53.139Z,15.68
2023-05-11T08:46:22.989Z,15.23
2023-05-11T08:48:50.854Z,18.05
2023-05-11T08:51:17.957Z,16.95
2023-05-11T08:53:45.647Z,13.88
2023-05-11T08:56:12.692Z,14.73
2023-05-11T08:58:40.131Z,13.98
2023-05-11T09:01:07.849Z,15.85
2023-05-11T09:03:37.217Z,16.10
2023-05-11T09:06:07.546Z,16.23
2023-05-11T09:08:38.595Z,13.80
2023-05-11T09:11:06.761Z,15.43
2023-05-11T09:13:34.232Z,12.40
2023-05-11T09:16:01.202Z,11.73
2023-05-11T09:18:28.216Z,11.30
2023-05-11T09:20:55.280Z,12.40
2023-05-11T09:23:27.001Z,13.25
2023-05-11T09:25:54.209Z,11.88
2023-05-11T09:28:25.904Z,11.88
2023-05-11T09:30:53.905Z,11.63
2023-05-11T09:33:25.026Z,11.82
2023-05-11T09:35:52.146Z,14.95
2023-05-11T09:38:23.266Z,9.75
2023-05-11T09:40:52.434Z,10.18
2023-05-11T09:43:24.963Z,8.30
2023-05-11T09:45:54.091Z,11.35
2023-05-11T09:48:21.225Z,9.63
2023-05-11T09:50:49.456Z,10.23
2023-05-11T09:53:17.244Z,10.73
2023-05-11T09:55:55.605Z,10.40
2023-05-11T09:58:23.195Z,8.63
2023-05-11T10:00:56.726Z,11.32
2023-05-11T10:03:25.864Z,8.05
2023-05-11T10:06:01.132Z,9.20
2023-05-11T10:08:30.543Z,6.70
2023-05-11T10:10:57.858Z,7.10
2023-05-11T10:13:29.657Z,6.43
2023-05-11T10:15:58.541Z,6.45
2023-05-11T10:18:25.773Z,6.65
2023-05-11T10:20:53.590Z,6.55
2023-05-11T10:23:21.270Z,6.65
2023-05-11T10:25:48.711Z,6.13
2023-05-11T10:28:15.734Z,5.80
2023-05-11T10:30:43.240Z,5.70
2023-05-11T10:33:11.249Z,6.95
2023-05-11T10:35:39.393Z,4.60
2023-05-11T10:38:10.377Z,5.20
2023-05-11T10:40:39.225Z,4.65
2023-05-11T10:43:06.690Z,6.57
2023-05-11T10:45:42.471Z,5.22
2023-05-11T10:48:41.649Z,4.85
2023-05-11T10:51:34.096Z,4.10
2023-05-11T10:54:03.733Z,4.10
2023-05-11T10:57:07.981Z,5.95
2023-05-11T10:59:43.655Z,4.10
2023-05-11T11:02:10.873Z,4.47
2023-05-11T11:04:49.757Z,5.85
2023-05-11T11:07:20.131Z,6.05
2023-05-11T11:10:13.116Z,5.55
2023-05-11T11:12:41.118Z,4.38
2023-05-11T11:15:09.230Z,3.80
2023-05-11T11:17:36.723Z,3.90
2023-05-11T11:20:07.797Z,6.85
2023-05-11T11:25:08.832Z,3.65
2023-05-11T11:27:41.623Z,3.05
2023-05-11T11:30:22.834Z,5.43
2023-05-11T11:35:42.291Z,4.95
2023-05-11T11:38:14.426Z,3.67
2023-05-11T11:40:53.994Z,4.75
2023-05-11T11:43:25.535Z,3.92
2023-05-11T11:45:52.539Z,4.72
2023-05-11T11:48:41.675Z,4.03
2023-05-11T11:51:10.502Z,4.10
2023-05-11T11:53:46.290Z,5.32
2023-05-11T11:56:15.918Z,6.07
2023-05-11T11:58:42.733Z,4.00
2023-05-11T12:01:11.897Z,4.72
2023-05-11T12:03:39.749Z,5.32
2023-05-11T12:06:08.052Z,5.03
2023-05-11T12:08:35.973Z,4.43
2023-05-11T12:11:04.167Z,4.43
2023-05-11T12:13:31.124Z,5.18
2023-05-11T12:16:17.515Z,3.63
2023-05-11T12:19:01.040Z,5.97
2023-05-11T12:21:31.770Z,8.02
2023-05-11T12:24:00.870Z,5.45
2023-05-11T12:26:28.927Z,7.60
2023-05-11T12:29:15.114Z,7.13
2023-05-11T12:31:43.279Z,6.85
2023-05-11T12:34:17.563Z,6.05
2023-05-11T12:36:49.236Z,5.60
2023-05-11T12:39:23.068Z,11.77
2023-05-11T12:41:51.077Z,7.57
2023-05-11T12:44:18.736Z,7.85
2023-05-11T12:46:49.750Z,7.72
2023-05-11T12:51:51.138Z,7.63
2023-05-11T12:54:51.693Z,8.77
2023-05-11T12:57:29.974Z,7.78
2023-05-11T13:00:08.194Z,8.25
2023-05-11T13:02:35.099Z,8.77
2023-05-11T13:05:12.088Z,11.40
2023-05-11T13:07:38.947Z,9.68
2023-05-11T13:10:06.113Z,10.90
2023-05-11T13:12:34.320Z,13.57
2023-05-11T13:15:05.782Z,12.50
2023-05-11T13:17:33.897Z,15.05
2023-05-11T13:20:23.794Z,12.38
2023-05-11T13:22:51.461Z,9.43
2023-05-11T13:25:21.698Z,9.82
2023-05-11T13:27:48.596Z,10.77
2023-05-11T13:30:15.435Z,10.63
2023-05-11T13:32:42.178Z,9.30
2023-05-11T13:35:09.248Z,10.02
2023-05-11T13:37:35.942Z,9.45
2023-05-11T13:40:02.643Z,11.00
2023-05-11T13:42:29.549Z,10.95
2023-05-11T13:44:56.439Z,15.38
2023-05-11T13:47:23.243Z,11.32
2023-05-11T13:49:50.057Z,12.68
2023-05-11T13:52:16.684Z,16.40
2023-05-11T13:54:43.293Z,14.60
2023-05-11T13:57:10.176Z,12.10
2023-05-11T13:59:37.004Z,11.38
2023-05-11T14:02:03.858Z,14.13
2023-05-11T14:04:30.651Z,14.57
2023-05-11T14:06:57.617Z,11.27
2023-05-11T14:09:24.276Z,12.35
2023-05-11T14:11:50.975Z,12.10
2023-05-11T14:14:17.696Z,12.90
2023-05-11T14:16:44.648Z,12.68
2023-05-11T14:19:11.545Z,15.88
2023-05-11T14:21:38.312Z,11.90
2023-05-11T14:24:12.198Z,12.57
2023-05-11T14:26:39.498Z,12.05
2023-05-11T14:29:06.076Z,17.63
2023-05-11T14:31:34.856Z,13.23
2023-05-11T14:34:01.720Z,13.00
2023-05-11T14:36:28.408Z,14.68
2023-05-11T14:38:55.058Z,14.45
2023-05-11T14:41:21.782Z,12.75
2023-05-11T14:43:49.445Z,15.25
2023-05-11T14:46:16.894Z,15.60
2023-05-11T14:48:43.810Z,14.35
2023-05-11T14:51:10.475Z,20.55
2023-05-11T14:53:37.131Z,20.67
2023-05-11T14:56:03.877Z,15.85
2023-05-11T14:58:30.604Z,18.85
2023-05-11T15:00:57.217Z,22.83
2023-05-11T15:03:25.205Z,17.60
2023-05-11T15:05:51.983Z,17.02
2023-05-11T15:08:29.120Z,19.10
2023-05-11T15:10:57.100Z,21.98
2023-05-11T15:13:24.230Z,20.63
2023-05-11T15:15:51.582Z,21.35
2023-05-11T15:18:20.942Z,16.23
2023-05-11T15:20:47.604Z,18.85
2023-05-11T15:23:17.477Z,17.73
2023-05-11T15:25:44.925Z,15.75
2023-05-11T15:28:11.973Z,21.50
2023-05-11T15:30:38.747Z,23.50
2023-05-11T15:33:05.574Z,17.90
2023-05-11T15:35:34.781Z,16.58
2023-05-11T15:38:01.529Z,17.30
2023-05-11T15:40:29.325Z,14.18
2023-05-11T15:42:58.476Z,15.55
2023-05-11T15:45:25.703Z,15.55
2023-05-11T15:47:52.364Z,16.60
2023-05-11T15:50:19.444Z,18.35
2023-05-11T15:52:46.212Z,17.20
2023-05-11T15:55:12.795Z,17.67
2023-05-11T15:57:39.379Z,13.65
2023-05-11T16:00:06.729Z,14.50
2023-05-11T16:02:34.650Z,12.80
2023-05-11T16:05:01.421Z,13.45
2023-05-11T16:07:28.609Z,13.73
2023-05-11T16:09:55.477Z,15.10
2023-05-11T16:12:22.073Z,13.10
2023-05-11T16:14:48.716Z,12.80
2023-05-11T16:17:15.379Z,10.93
2023-05-11T16:19:42.116Z,11.27
2023-05-11T16:22:08.727Z,9.77
2023-05-11T16:24:35.389Z,8.27
2023-05-11T16:27:02.090Z,8.38
2023-05-11T16:29:28.725Z,9.77
2023-05-11T16:31:56.619Z,9.93
2023-05-11T16:34:23.279Z,8.40
2023-05-11T16:36:49.919Z,8.20
2023-05-11T16:39:16.564Z,7.50
2023-05-11T16:41:43.524Z,9.20
2023-05-11T16:44:10.154Z,9.20
2023-05-11T16:46:36.908Z,11.15
2023-05-11T16:49:03.588Z,9.45
2023-05-11T16:51:30.368Z,11.32
2023-05-11T16:53:57.376Z,8.70
2023-05-11T16:56:24.161Z,9.45
2023-05-11T16:58:50.772Z,11.73
2023-05-11T17:01:17.528Z,10.13
2023-05-11T17:03:44.307Z,10.05
2023-05-11T17:06:13.704Z,9.45
2023-05-11T17:08:40.761Z,9.65
2023-05-11T17:11:07.642Z,8.13
2023-05-11T17:13:34.337Z,10.50
2023-05-11T17:16:01.106Z,9.27
2023-05-11T17:18:28.120Z,8.65
2023-05-11T17:20:55.169Z,11.45
2023-05-11T17:23:23.150Z,10.07
2023-05-11T17:25:49.874Z,12.50
2023-05-11T17:28:16.628Z,9.75
2023-05-11T17:30:48.853Z,9.82
2023-05-11T17:33:16.426Z,10.27
2023-05-11T17:35:43.381Z,10.55
2023-05-11T17:38:10.265Z,9.25
2023-05-11T17:40:36.956Z,8.00
2023-05-11T17:43:03.649Z,10.65
2023-05-11T17:45:30.395Z,9.98
2023-05-11T17:47:57.318Z,7.13
2023-05-11T17:50:24.115Z,10.60
2023-05-11T17:52:51.358Z,9.50
2023-05-11T17:55:18.556Z,7.53
2023-05-11T17:57:45.419Z,8.00
2023-05-11T18:00:12.661Z,9.18
2023-05-11T18:02:39.529Z,8.85
2023-05-11T18:05:07.131Z,7.47
2023-05-11T18:07:33.995Z,7.85
2023-05-11T18:10:00.664Z,8.02
2023-05-11T18:12:27.757Z,12.70
2023-05-11T18:14:54.463Z,10.43
2023-05-11T18:17:21.973Z,10.18
2023-05-11T18:19:48.692Z,12.27
2023-05-11T18:22:15.285Z,12.68
2023-05-11T18:24:42.110Z,12.23
2023-05-11T18:27:08.731Z,9.27
2023-05-11T18:29:37.405Z,14.70
2023-05-11T18:32:04.279Z,14.00
2023-05-11T18:34:31.010Z,10.82
2023-05-11T18:36:57.669Z,9.35
2023-05-11T18:39:24.336Z,14.32
2023-05-11T18:41:51.152Z,12.55
2023-05-11T18:44:19.306Z,13.68
2023-05-11T18:46:46.107Z,14.70
2023-05-11T18:49:13.050Z,15.23
2023-05-11T18:51:39.822Z,16.48
2023-05-11T18:54:06.728Z,14.07
2023-05-11T18:56:33.475Z,16.33
2023-05-11T18:59:00.220Z,13.82
2023-05-11T19:01:39.883Z,12.40
2023-05-11T19:04:14.349Z,14.48
2023-05-11T19:06:41.119Z,12.10
2023-05-11T19:09:07.730Z,12.20
2023-05-11T19:11:35.490Z,8.32
2023-05-11T19:14:02.657Z,9.30
2023-05-11T19:16:32.592Z,9.88
2023-05-11T19:18:59.689Z,11.05
2023-05-11T19:21:26.498Z,10.88
2023-05-11T19:23:53.153Z,13.63
2023-05-11T19:26:19.789Z,10.35
2023-05-11T19:28:46.378Z,9.65
2023-05-11T19:31:13.465Z,13.80
2023-05-11T19:33:40.186Z,11.85
2023-05-11T19:36:07.344Z,10.57
2023-05-11T19:38:35.992Z,11.45
2023-05-11T19:41:03.211Z,8.82
2023-05-11T19:43:29.795Z,8.13
2023-05-11T19:45:56.440Z,9.48
2023-05-11T19:48:23.399Z,7.45
2023-05-11T19:50:50.105Z,9.70
2023-05-11T19:53:16.799Z,10.98
2023-05-11T19:55:45.397Z,9.65
2023-05-11T19:58:14.075Z,9.90
2023-05-11T20:00:43.585Z,8.63
2023-05-11T20:03:10.524Z,13.95
2023-05-11T20:05:37.344Z,9.82
2023-05-11T20:08:06.149Z,9.02
2023-05-11T20:10:32.822Z,6.35
2023-05-11T20:13:02.527Z,7.65
2023-05-11T20:15:29.198Z,7.07
2023-05-11T20:17:55.964Z,6.53
2023-05-11T20:20:22.803Z,5.40
2023-05-11T20:22:49.478Z,7.05
2023-05-11T20:25:18.783Z,7.05
2023-05-11T20:27:46.224Z,5.88
2023-05-11T20:30:13.297Z,7.90
2023-05-11T20:34:06.587Z,7.72
2023-05-11T20:35:26.849Z,6.93
2023-05-11T20:37:53.551Z,9.50
2023-05-11T20:40:20.574Z,7.18
2023-05-11T20:42:47.374Z,7.80
2023-05-11T20:45:14.075Z,10.23
2023-05-11T20:47:40.787Z,7.43
2023-05-11T20:50:09.337Z,9.55
2023-05-11T20:52:36.442Z,8.55
2023-05-11T20:55:03.932Z,7.68
2023-05-11T20:57:30.580Z,7.28
2023-05-11T21:02:27.105Z,7.18
2023-05-11T21:04:54.186Z,6.03
2023-05-11T21:07:23.053Z,7.10
2023-05-11T21:09:49.695Z,7.00
2023-05-11T21:12:16.399Z,5.65
2023-05-11T21:14:43.057Z,6.90
2023-05-11T21:17:09.868Z,6.40
2023-05-11T21:19:36.696Z,6.00
2023-05-11T21:22:03.359Z,5.50
2023-05-11T21:24:29.964Z,6.18
2023-05-11T21:26:56.618Z,6.93
2023-05-11T21:29:23.221Z,4.35
2023-05-11T21:31:50.051Z,4.65
2023-05-11T21:34:17.364Z,5.35
2023-05-11T21:36:45.683Z,6.05
2023-05-11T21:39:13.314Z,8.18
2023-05-11T21:41:40.000Z,6.28
2023-05-11T21:44:06.694Z,10.90
2023-05-11T21:46:33.489Z,6.50
2023-05-11T21:49:00.128Z,8.75
2023-05-11T21:51:26.862Z,5.82
2023-05-11T21:53:53.557Z,5.80
2023-05-11T21:56:20.255Z,7.53
2023-05-11T21:58:46.952Z,7.15
2023-05-11T22:01:13.967Z,9.77
2023-05-11T22:03:40.646Z,8.25
2023-05-11T22:06:07.652Z,6.07
2023-05-11T22:08:34.340Z,7.43
2023-05-11T22:11:01.055Z,6.90
2023-05-11T22:13:28.157Z,6.53
2023-05-11T22:15:57.796Z,10.35
2023-05-11T22:18:24.574Z,8.35
2023-05-11T22:20:51.346Z,10.93
2023-05-11T22:23:18.045Z,4.20
2023-05-11T22:25:44.722Z,9.20
2023-05-11T22:28:11.542Z,5.82
2023-05-11T22:30:38.288Z,9.27
2023-05-11T22:33:04.922Z,6.80
2023-05-11T22:35:31.696Z,8.63
2023-05-11T22:37:58.468Z,5.88
2023-05-11T22:40:25.427Z,4.70
2023-05-11T22:42:52.127Z,8.52
2023-05-11T22:45:18.923Z,4.38
2023-05-11T22:47:45.712Z,5.80
2023-05-11T22:50:12.350Z,13.85
2023-05-11T22:52:39.377Z,97.63
2023-05-11T22:55:06.683Z,3.80
2023-05-11T22:57:33.412Z,3.20
2023-05-11T23:00:00.115Z,4.05
2023-05-11T23:02:26.830Z,2.60
2023-05-11T23:04:53.834Z,3.22
2023-05-11T23:07:20.890Z,4.95
2023-05-11T23:09:47.823Z,3.08
2023-05-11T23:12:14.450Z,3.55
2023-05-11T23:14:41.958Z,1.80
2023-05-11T23:17:08.792Z,2.75
2023-05-11T23:19:35.498Z,3.50
2023-05-11T23:22:02.391Z,3.38
2023-05-11T23:24:29.082Z,2.70
2023-05-11T23:26:56.122Z,3.15
2023-05-11T23:29:23.010Z,2.88
2023-05-11T23:31:51.084Z,6.05
2023-05-11T23:34:18.522Z,1.67
2023-05-11T23:36:45.285Z,1.55
2023-05-11T23:39:12.273Z,1.52
2023-05-11T23:41:39.032Z,1.48
2023-05-11T23:44:05.777Z,1.60
2023-05-11T23:46:32.737Z,1.85
2023-05-11T23:48:59.432Z,3.60
2023-05-11T23:51:26.317Z,1.58
2023-05-11T23:53:53.041Z,8.02
2023-05-11T23:56:19.820Z,30.23
2023-05-11T23:58:46.534Z,14.13
